createdAt,value
2023-02-28T00:00:12.812Z,1.50
2023-02-28T00:04:21.477Z,1.40
2023-02-28T00:08:30.109Z,1.40
2023-02-28T00:12:39.374Z,1.30
2023-02-28T00:16:47.982Z,1.30
2023-02-28T00:20:57.592Z,1.30
2023-02-28T00:25:07.930Z,1.30
2023-02-28T00:29:16.730Z,1.30
2023-02-28T00:33:25.358Z,1.20
2023-02-28T00:37:34.190Z,1.10
2023-02-28T00:41:42.822Z,1.10
2023-02-28T00:45:51.473Z,1.10
2023-02-28T00:50:19.940Z,1.00
2023-02-28T00:54:28.881Z,1.00
2023-02-28T00:58:37.489Z,1.10
2023-02-28T01:03:05.386Z,1.10
2023-02-28T01:07:15.505Z,1.10
2023-02-28T01:11:45.081Z,1.10
2023-02-28T01:15:56.921Z,1.10
2023-02-28T01:20:06.051Z,1.20
2023-02-28T01:24:14.679Z,1.20
2023-02-28T01:28:23.483Z,1.20
2023-02-28T01:32:32.089Z,1.10
2023-02-28T01:36:40.663Z,1.10
2023-02-28T01:40:49.272Z,1.10
2023-02-28T01:45:03.922Z,1.10
2023-02-28T01:49:15.626Z,1.00
2023-02-28T01:53:27.275Z,0.90
2023-02-28T01:57:39.244Z,1.00
2023-02-28T02:01:48.201Z,1.00
2023-02-28T02:05:57.003Z,1.00
2023-02-28T02:10:17.757Z,0.90
2023-02-28T02:14:29.414Z,0.90
2023-02-28T02:18:52.893Z,0.90
2023-02-28T02:23:27.833Z,0.90
2023-02-28T02:27:45.170Z,0.80
2023-02-28T02:32:17.978Z,0.80
2023-02-28T02:36:49.022Z,0.70
2023-02-28T02:41:18.456Z,0.80
2023-02-28T02:45:53.973Z,0.70
2023-02-28T02:50:23.479Z,0.70
2023-02-28T02:54:56.405Z,0.60
2023-02-28T02:59:07.157Z,0.60
2023-02-28T03:03:18.928Z,0.60
2023-02-28T03:07:28.489Z,0.60
2023-02-28T03:11:39.178Z,0.60
2023-02-28T03:16:05.755Z,0.50
2023-02-28T03:20:36.998Z,0.50
2023-02-28T03:24:49.169Z,0.40
2023-02-28T03:29:21.946Z,0.30
2023-02-28T03:33:42.677Z,0.30
2023-02-28T03:38:09.111Z,0.30
2023-02-28T03:42:27.009Z,0.30
2023-02-28T03:46:38.637Z,0.20
2023-02-28T03:50:50.107Z,0.20
2023-02-28T03:55:03.642Z,0.20
2023-02-28T03:59:21.084Z,0.10
2023-02-28T04:03:29.754Z,0.10
2023-02-28T04:07:39.262Z,0.10
2023-02-28T04:12:07.244Z,0.10
2023-02-28T04:16:32.095Z,0.00
2023-02-28T04:20:26.456Z,0.00
2023-02-28T04:24:35.349Z,0.00
2023-02-28T04:28:44.014Z,0.00
2023-02-28T04:32:52.640Z,0.00
2023-02-28T04:37:17.048Z,0.00
2023-02-28T04:41:11.646Z,0.00
2023-02-28T04:45:20.133Z,-0.10
2023-02-28T04:49:28.793Z,-0.10
2023-02-28T04:53:39.181Z,-0.10
2023-02-28T04:57:47.736Z,0.00
2023-02-28T05:01:56.318Z,0.00
2023-02-28T05:06:04.971Z,-0.10
2023-02-28T05:10:13.713Z,0.00
2023-02-28T05:14:41.606Z,-0.10
2023-02-28T05:19:09.612Z,-0.10
2023-02-28T05:23:21.695Z,-0.20
2023-02-28T05:27:30.262Z,-0.20
2023-02-28T05:31:39.579Z,-0.30
2023-02-28T05:35:48.274Z,-0.40
2023-02-28T05:39:56.878Z,-0.40
2023-02-28T05:44:05.718Z,-0.40
2023-02-28T05:48:14.235Z,-0.40
2023-02-28T05:52:22.867Z,-0.40
2023-02-28T05:56:31.596Z,-0.30
2023-02-28T06:00:42.319Z,-0.30
2023-02-28T06:04:50.394Z,-0.30
2023-02-28T06:08:59.230Z,-0.30
2023-02-28T06:13:27.106Z,-0.30
2023-02-28T06:17:35.968Z,-0.30
2023-02-28T06:21:46.160Z,-0.40
2023-02-28T06:25:56.386Z,-0.40
2023-02-28T06:30:05.175Z,-0.30
2023-02-28T06:34:14.582Z,-0.30
2023-02-28T06:38:23.200Z,-0.30
2023-02-28T06:42:31.846Z,-0.40
2023-02-28T06:46:42.636Z,-0.40
2023-02-28T06:50:51.218Z,-0.40
2023-02-28T06:55:02.919Z,-0.40
2023-02-28T06:59:11.661Z,-0.40
2023-02-28T07:03:20.692Z,-0.40
2023-02-28T07:07:29.418Z,-0.40
2023-02-28T07:11:38.043Z,-0.50
2023-02-28T07:15:48.238Z,-0.60
2023-02-28T07:20:16.188Z,-0.50
2023-02-28T07:24:26.557Z,-0.50
2023-02-28T07:28:35.478Z,-0.50
2023-02-28T07:32:45.282Z,-0.50
2023-02-28T07:36:55.824Z,-0.50
2023-02-28T07:41:07.787Z,-0.40
2023-02-28T07:45:16.465Z,-0.30
2023-02-28T07:49:25.097Z,-0.20
2023-02-28T07:53:33.722Z,-0.20
2023-02-28T07:57:42.865Z,-0.10
2023-02-28T08:02:12.381Z,0.10
2023-02-28T08:06:24.091Z,0.20
2023-02-28T08:10:32.713Z,0.30
2023-02-28T08:14:41.337Z,0.40
2023-02-28T08:18:51.431Z,0.50
2023-02-28T08:22:59.977Z,0.60
2023-02-28T08:27:08.663Z,0.80
2023-02-28T08:31:18.914Z,0.90
2023-02-28T08:35:27.551Z,1.00
2023-02-28T08:39:39.390Z,1.20
2023-02-28T08:43:49.359Z,1.30
2023-02-28T08:47:57.906Z,1.40
2023-02-28T08:52:07.186Z,1.50
2023-02-28T08:56:17.687Z,1.70
2023-02-28T09:00:26.367Z,1.90
2023-02-28T09:04:35.749Z,2.00
2023-02-28T09:08:44.754Z,2.10
2023-02-28T09:12:54.114Z,2.30
2023-02-28T09:17:02.787Z,2.40
2023-02-28T09:21:15.742Z,2.60
2023-02-28T09:25:24.403Z,2.80
2023-02-28T09:29:34.606Z,3.00
2023-02-28T09:33:43.213Z,3.10
2023-02-28T09:37:53.431Z,3.30
2023-02-28T09:42:23.404Z,3.40
2023-02-28T09:46:38.667Z,3.50
2023-02-28T09:50:50.336Z,3.60
2023-02-28T09:55:01.962Z,3.60
2023-02-28T09:59:22.430Z,3.60
2023-02-28T10:03:46.140Z,3.70
2023-02-28T10:08:01.064Z,3.90
2023-02-28T10:12:12.158Z,4.10
2023-02-28T10:16:26.251Z,4.20
2023-02-28T10:20:38.306Z,4.30
2023-02-28T10:24:52.983Z,4.40
2023-02-28T10:29:03.666Z,4.40
2023-02-28T10:33:18.857Z,4.60
2023-02-28T10:37:29.432Z,4.70
2023-02-28T10:41:41.073Z,5.00
2023-02-28T10:46:04.887Z,5.20
2023-02-28T10:50:31.884Z,5.30
2023-02-28T10:54:41.760Z,5.30
2023-02-28T10:59:19.059Z,5.50
2023-02-28T11:03:36.481Z,5.40
2023-02-28T11:07:53.560Z,5.50
2023-02-28T11:11:58.640Z,5.60
2023-02-28T11:16:10.518Z,5.70
2023-02-28T11:20:22.209Z,5.80
2023-02-28T11:24:39.644Z,5.80
2023-02-28T11:29:15.208Z,5.80
2023-02-28T11:33:30.167Z,6.00
2023-02-28T11:37:51.211Z,6.30
2023-02-28T11:42:05.562Z,6.70
2023-02-28T11:46:20.242Z,6.80
2023-02-28T11:50:43.430Z,6.70
2023-02-28T11:55:10.050Z,6.70
2023-02-28T11:59:36.446Z,6.70
2023-02-28T12:04:03.753Z,6.70
2023-02-28T12:08:52.417Z,6.70
2023-02-28T12:13:10.408Z,6.90
2023-02-28T12:17:44.517Z,7.00
2023-02-28T12:22:17.013Z,6.90
2023-02-28T12:31:25.287Z,6.60
2023-02-28T12:35:52.398Z,6.60
2023-02-28T12:40:14.682Z,6.70
2023-02-28T12:44:41.009Z,6.70
2023-02-28T12:49:13.299Z,6.60
2023-02-28T12:53:43.073Z,6.60
2023-02-28T12:58:19.908Z,6.60
2023-02-28T13:02:52.640Z,6.70
2023-02-28T13:07:39.728Z,6.60
2023-02-28T13:12:07.622Z,6.50
2023-02-28T13:16:17.727Z,6.50
2023-02-28T13:20:30.930Z,6.50
2023-02-28T13:24:51.309Z,6.50
2023-02-28T13:29:02.819Z,6.40
2023-02-28T13:33:30.814Z,6.40
2023-02-28T13:37:42.641Z,6.40
2023-02-28T13:41:51.560Z,6.50
2023-02-28T13:46:14.005Z,6.50
2023-02-28T13:50:35.154Z,6.40
2023-02-28T13:55:09.857Z,6.50
2023-02-28T13:59:46.121Z,6.50
2023-02-28T14:04:13.902Z,6.60
2023-02-28T14:08:25.145Z,6.60
2023-02-28T14:13:05.909Z,6.70
2023-02-28T14:17:19.010Z,6.70
2023-02-28T14:21:55.808Z,6.60
2023-02-28T14:26:13.742Z,6.60
2023-02-28T14:30:39.745Z,6.40
2023-02-28T14:35:09.201Z,6.30
2023-02-28T14:39:20.792Z,6.30
2023-02-28T14:43:30.507Z,6.20
2023-02-28T14:47:39.183Z,6.20
2023-02-28T14:51:48.363Z,6.20
2023-02-28T14:55:57.085Z,6.20
2023-02-28T15:00:18.306Z,6.10
2023-02-28T15:04:48.164Z,6.10
2023-02-28T15:09:16.702Z,6.10
2023-02-28T15:13:27.684Z,6.10
2023-02-28T15:17:39.350Z,6.10
2023-02-28T15:21:51.014Z,6.00
2023-02-28T15:26:00.526Z,6.00
2023-02-28T15:30:12.270Z,5.90
2023-02-28T15:34:26.519Z,5.80
2023-02-28T15:38:37.168Z,5.70
2023-02-28T15:43:00.614Z,5.70
2023-02-28T15:47:17.892Z,5.60
2023-02-28T15:51:38.394Z,5.60
2023-02-28T15:55:47.321Z,5.50
2023-02-28T16:00:01.715Z,5.40
2023-02-28T16:04:19.382Z,5.40
2023-02-28T16:08:27.957Z,5.30
2023-02-28T16:12:39.141Z,5.30
2023-02-28T16:16:50.709Z,5.20
2023-02-28T16:20:59.263Z,5.20
2023-02-28T16:25:08.918Z,5.20
2023-02-28T16:29:20.529Z,5.10
2023-02-28T16:33:29.110Z,5.10
2023-02-28T16:37:38.625Z,5.00
2023-02-28T16:41:49.219Z,5.00
2023-02-28T16:46:01.263Z,5.00
2023-02-28T16:50:21.886Z,4.90
2023-02-28T16:54:30.521Z,4.90
2023-02-28T16:58:39.027Z,4.80
2023-02-28T17:02:48.038Z,4.70
2023-02-28T17:06:56.931Z,4.60
2023-02-28T17:11:25.308Z,4.60
2023-02-28T17:15:33.915Z,4.50
2023-02-28T17:19:44.240Z,4.40
2023-02-28T17:23:52.936Z,4.40
2023-02-28T17:28:01.563Z,4.40
2023-02-28T17:32:17.791Z,4.40
2023-02-28T17:36:30.028Z,4.30
2023-02-28T17:40:38.761Z,4.20
2023-02-28T17:44:47.452Z,4.20
2023-02-28T17:48:56.390Z,4.20
2023-02-28T17:53:24.270Z,4.10
2023-02-28T17:57:52.245Z,4.10
2023-02-28T18:02:01.614Z,4.10
2023-02-28T18:06:16.363Z,4.10
2023-02-28T18:10:25.332Z,4.00
2023-02-28T18:14:34.031Z,3.90
2023-02-28T18:18:43.046Z,3.90
2023-02-28T18:22:51.703Z,3.80
2023-02-28T18:27:00.400Z,3.80
2023-02-28T18:31:10.470Z,3.80
2023-02-28T18:35:21.162Z,3.70
2023-02-28T18:39:31.327Z,3.70
2023-02-28T18:43:40.400Z,3.60
2023-02-28T18:47:48.955Z,3.60
2023-02-28T18:51:58.583Z,3.50
2023-02-28T18:56:08.344Z,3.50
2023-02-28T19:00:36.442Z,3.40
2023-02-28T19:04:45.115Z,3.40
2023-02-28T19:08:59.110Z,3.30
2023-02-28T19:13:08.007Z,3.30
2023-02-28T19:17:16.637Z,3.20
2023-02-28T19:21:26.128Z,3.20
2023-02-28T19:25:34.683Z,3.10
2023-02-28T19:29:43.235Z,3.10
2023-02-28T19:33:53.425Z,3.10
2023-02-28T19:38:02.051Z,3.10
2023-02-28T19:42:15.619Z,3.10
2023-02-28T19:46:24.213Z,3.00
2023-02-28T19:50:32.830Z,3.00
2023-02-28T19:54:41.570Z,3.00
2023-02-28T19:58:50.196Z,3.00
2023-02-28T20:02:58.719Z,2.90
2023-02-28T20:07:07.421Z,2.80
2023-02-28T20:11:18.033Z,2.80
2023-02-28T20:15:26.753Z,2.70
2023-02-28T20:19:55.052Z,2.60
2023-02-28T20:24:03.798Z,2.60
2023-02-28T20:28:12.562Z,2.60
2023-02-28T20:32:21.199Z,2.60
2023-02-28T20:36:30.012Z,2.50
2023-02-28T20:40:39.378Z,2.50
2023-02-28T20:44:47.936Z,2.50
2023-02-28T20:48:56.858Z,2.40
2023-02-28T20:53:05.418Z,2.40
2023-02-28T20:57:14.039Z,2.30
2023-02-28T21:01:45.022Z,2.30
2023-02-28T21:05:53.721Z,2.10
2023-02-28T21:10:02.657Z,2.10
2023-02-28T21:14:18.884Z,2.00
2023-02-28T21:18:27.493Z,2.10
2023-02-28T21:22:36.019Z,2.00
2023-02-28T21:26:45.599Z,1.90
2023-02-28T21:31:14.815Z,1.80
2023-02-28T21:35:23.459Z,1.80
2023-02-28T21:39:32.139Z,1.80
2023-02-28T21:43:41.467Z,1.80
2023-02-28T21:47:50.017Z,1.80
2023-02-28T21:51:58.847Z,1.70
2023-02-28T21:56:09.649Z,1.70
2023-02-28T22:00:18.972Z,1.70
2023-02-28T22:04:27.523Z,1.60
2023-02-28T22:08:36.124Z,1.60
2023-02-28T22:13:04.663Z,1.60
2023-02-28T22:17:13.245Z,1.60
2023-02-28T22:21:23.538Z,1.60
2023-02-28T22:25:32.242Z,1.50
2023-02-28T22:29:40.803Z,1.50
2023-02-28T22:33:50.680Z,1.40
2023-02-28T22:37:59.250Z,1.40
2023-02-28T22:42:07.809Z,1.40
2023-02-28T22:46:16.380Z,1.30
2023-02-28T22:50:24.909Z,1.30
2023-02-28T22:54:33.458Z,1.30
2023-02-28T22:58:43.841Z,1.20
2023-02-28T23:02:52.354Z,1.20
2023-02-28T23:07:08.276Z,1.20
2023-02-28T23:11:22.828Z,1.20
2023-02-28T23:15:31.490Z,1.10
2023-02-28T23:19:40.080Z,1.00
2023-02-28T23:23:48.766Z,1.00
2023-02-28T23:27:57.341Z,0.90
2023-02-28T23:32:06.083Z,0.90
2023-02-28T23:36:16.955Z,0.90
2023-02-28T23:40:25.780Z,0.90
2023-02-28T23:44:34.409Z,0.90
2023-02-28T23:48:44.144Z,0.90
2023-02-28T23:52:53.507Z,0.90
2023-02-28T23:57:02.113Z,0.90
